sensor_id;sensor_type;location;lat;lon;timestamp;pressure;altitude;pressure_sealevel;temperature;humidity
61674;BME280;47573;43.832;5.974;2023-03-14T00:03:36;94323.22;;;26.12;59.59
61674;BME280;47573;43.832;5.974;2023-03-14T00:10:18;94310.38;;;26.08;59.92
61674;BME280;47573;43.832;5.974;2023-03-14T00:16:59;94284.13;;;26.02;59.95
61674;BME280;47573;43.832;5.974;2023-03-14T00:23:41;94319.41;;;26.03;59.87
61674;BME280;47573;43.832;5.974;2023-03-14T00:30:23;94301.94;;;25.99;58.85
61674;BME280;47573;43.832;5.974;2023-03-14T00:37:03;94333.44;;;25.97;59.47
61674;BME280;47573;43.832;5.974;2023-03-14T00:43:44;94328.22;;;25.95;60.16
61674;BME280;47573;43.832;5.974;2023-03-14T00:50:26;94336.72;;;25.94;59.94
61674;BME280;47573;43.832;5.974;2023-03-14T00:57:07;94332.91;;;25.95;59.65
61674;BME280;47573;43.832;5.974;2023-03-14T01:03:49;94452.16;;;25.91;59.84
61674;BME280;47573;43.832;5.974;2023-03-14T01:10:32;94575.28;;;25.86;59.99
61674;BME280;47573;43.832;5.974;2023-03-14T01:17:13;94546.59;;;25.78;60.19
61674;BME280;47573;43.832;5.974;2023-03-14T01:23:55;94497.09;;;25.75;60.37
61674;BME280;47573;43.832;5.974;2023-03-14T01:30:37;94491.13;;;25.68;60.64
61674;BME280;47573;43.832;5.974;2023-03-14T01:37:18;94486.75;;;25.67;60.44
61674;BME280;47573;43.832;5.974;2023-03-14T01:43:59;94475.00;;;25.61;60.32
61674;BME280;47573;43.832;5.974;2023-03-14T01:50:40;94469.28;;;25.58;60.11
61674;BME280;47573;43.832;5.974;2023-03-14T01:57:25;94471.75;;;25.54;60.29
61674;BME280;47573;43.832;5.974;2023-03-14T02:04:08;94456.19;;;25.49;60.25
61674;BME280;47573;43.832;5.974;2023-03-14T02:10:51;94402.66;;;25.43;60.28
61674;BME280;47573;43.832;5.974;2023-03-14T02:17:31;94402.66;;;25.43;60.15
61674;BME280;47573;43.832;5.974;2023-03-14T02:24:17;94330.25;;;25.36;60.29
61674;BME280;47573;43.832;5.974;2023-03-14T02:31:03;94326.44;;;25.32;59.71
61674;BME280;47573;43.832;5.974;2023-03-14T02:37:47;94344.75;;;25.26;60.13
61674;BME280;47573;43.832;5.974;2023-03-14T02:44:29;94351.34;;;25.25;59.83
61674;BME280;47573;43.832;5.974;2023-03-14T02:51:11;94350.25;;;25.21;60.15
61674;BME280;47573;43.832;5.974;2023-03-14T02:57:52;94343.72;;;25.17;60.18
61674;BME280;47573;43.832;5.974;2023-03-14T03:04:33;94326.81;;;25.10;60.31
61674;BME280;47573;43.832;5.974;2023-03-14T03:11:15;94308.81;;;25.09;60.06
61674;BME280;47573;43.832;5.974;2023-03-14T03:17:55;94302.81;;;25.02;60.21
61674;BME280;47573;43.832;5.974;2023-03-14T03:24:36;94305.00;;;25.00;60.03
61674;BME280;47573;43.832;5.974;2023-03-14T03:31:18;94315.94;;;24.95;60.19
61674;BME280;47573;43.832;5.974;2023-03-14T03:37:58;94320.31;;;24.91;60.45
61674;BME280;47573;43.832;5.974;2023-03-14T03:44:39;94329.09;;;24.88;60.36
61674;BME280;47573;43.832;5.974;2023-03-14T03:51:20;94318.47;;;24.87;60.40
61674;BME280;47573;43.832;5.974;2023-03-14T03:58:01;94317.63;;;24.81;60.22
61674;BME280;47573;43.832;5.974;2023-03-14T04:04:41;94312.75;;;24.78;60.16
61674;BME280;47573;43.832;5.974;2023-03-14T04:11:23;94312.19;;;24.71;60.31
61674;BME280;47573;43.832;5.974;2023-03-14T04:18:04;94316.03;;;24.65;60.30
61674;BME280;47573;43.832;5.974;2023-03-14T04:24:44;94335.13;;;24.65;60.33
61674;BME280;47573;43.832;5.974;2023-03-14T04:31:26;94313.03;;;24.56;60.24
61674;BME280;47573;43.832;5.974;2023-03-14T04:38:06;94317.72;;;24.51;60.25
61674;BME280;47573;43.832;5.974;2023-03-14T04:44:47;94313.06;;;24.51;60.35
61674;BME280;47573;43.832;5.974;2023-03-14T04:51:29;94300.25;;;24.47;60.19
61674;BME280;47573;43.832;5.974;2023-03-14T04:58:09;94297.53;;;24.42;60.46
61674;BME280;47573;43.832;5.974;2023-03-14T05:04:50;94312.28;;;24.41;60.41
61674;BME280;47573;43.832;5.974;2023-03-14T05:11:31;94317.44;;;24.42;60.55
61674;BME280;47573;43.832;5.974;2023-03-14T05:18:12;94302.97;;;24.42;59.93
61674;BME280;47573;43.832;5.974;2023-03-14T05:24:52;94303.56;;;24.39;59.98
61674;BME280;47573;43.832;5.974;2023-03-14T05:31:34;94283.63;;;24.33;60.03
61674;BME280;47573;43.832;5.974;2023-03-14T05:38:15;94287.19;;;24.29;60.36
61674;BME280;47573;43.832;5.974;2023-03-14T05:44:55;94290.47;;;24.26;60.93
61674;BME280;47573;43.832;5.974;2023-03-14T05:51:37;94286.09;;;24.35;60.95
61674;BME280;47573;43.832;5.974;2023-03-14T05:58:17;94305.72;;;24.47;60.66
61674;BME280;47573;43.832;5.974;2023-03-14T06:04:58;94299.72;;;24.45;61.84
61674;BME280;47573;43.832;5.974;2023-03-14T06:11:40;94302.69;;;24.48;61.65
61674;BME280;47573;43.832;5.974;2023-03-14T06:18:20;94312.22;;;24.56;61.87
61674;BME280;47573;43.832;5.974;2023-03-14T06:25:00;94314.94;;;24.61;61.76
61674;BME280;47573;43.832;5.974;2023-03-14T06:31:42;94313.56;;;24.68;61.80
61674;BME280;47573;43.832;5.974;2023-03-14T06:38:23;94320.66;;;24.74;61.87
61674;BME280;47573;43.832;5.974;2023-03-14T06:45:04;94344.94;;;24.81;61.97
61674;BME280;47573;43.832;5.974;2023-03-14T06:51:46;94343.03;;;24.87;62.02
61674;BME280;47573;43.832;5.974;2023-03-14T06:58:27;94347.38;;;24.88;62.13
61674;BME280;47573;43.832;5.974;2023-03-14T07:05:08;94351.75;;;24.89;61.95
61674;BME280;47573;43.832;5.974;2023-03-14T07:11:50;94352.56;;;24.89;62.51
61674;BME280;47573;43.832;5.974;2023-03-14T07:18:30;94347.38;;;24.93;62.42
61674;BME280;47573;43.832;5.974;2023-03-14T07:25:11;94347.63;;;24.96;62.24
61674;BME280;47573;43.832;5.974;2023-03-14T07:31:52;94375.19;;;25.00;62.16
61674;BME280;47573;43.832;5.974;2023-03-14T07:38:33;94374.41;;;24.99;62.53
61674;BME280;47573;43.832;5.974;2023-03-14T07:45:13;94374.66;;;25.03;62.73
61674;BME280;47573;43.832;5.974;2023-03-14T07:51:55;94386.13;;;25.00;62.57
61674;BME280;47573;43.832;5.974;2023-03-14T07:58:36;94388.00;;;25.04;62.69
61674;BME280;47573;43.832;5.974;2023-03-14T08:05:16;94386.94;;;25.05;62.54
61674;BME280;47573;43.832;5.974;2023-03-14T08:11:58;94394.56;;;25.08;62.78
61674;BME280;47573;43.832;5.974;2023-03-14T08:18:39;94386.34;;;25.13;62.70
61674;BME280;47573;43.832;5.974;2023-03-14T08:25:19;94369.91;;;25.23;62.42
61674;BME280;47573;43.832;5.974;2023-03-14T08:32:01;94387.91;;;25.34;62.25
61674;BME280;47573;43.832;5.974;2023-03-14T08:38:41;94378.06;;;25.38;62.03
61674;BME280;47573;43.832;5.974;2023-03-14T08:45:22;94392.25;;;25.40;62.04
61674;BME280;47573;43.832;5.974;2023-03-14T08:52:04;94389.00;;;25.38;62.14
61674;BME280;47573;43.832;5.974;2023-03-14T08:58:45;94381.63;;;25.34;62.05
61674;BME280;47573;43.832;5.974;2023-03-14T09:05:25;94386.78;;;25.40;62.38
61674;BME280;47573;43.832;5.974;2023-03-14T09:12:07;94387.34;;;25.42;61.92
61674;BME280;47573;43.832;5.974;2023-03-14T09:18:48;94402.09;;;25.46;61.94
61674;BME280;47573;43.832;5.974;2023-03-14T09:25:28;94398.28;;;25.42;61.77
61674;BME280;47573;43.832;5.974;2023-03-14T09:32:10;94407.56;;;25.46;61.97
61674;BME280;47573;43.832;5.974;2023-03-14T09:38:50;94405.38;;;25.48;61.79
61674;BME280;47573;43.832;5.974;2023-03-14T09:45:33;94407.50;;;25.57;62.14
61674;BME280;47573;43.832;5.974;2023-03-14T09:52:19;94417.31;;;25.58;61.67
61674;BME280;47573;43.832;5.974;2023-03-14T09:59:03;94405.31;;;25.59;62.13
61674;BME280;47573;43.832;5.974;2023-03-14T10:05:46;94408.81;;;25.64;62.00
61674;BME280;47573;43.832;5.974;2023-03-14T10:12:32;94381.75;;;25.68;61.79
61674;BME280;47573;43.832;5.974;2023-03-14T10:19:16;94399.78;;;25.69;61.58
61674;BME280;47573;43.832;5.974;2023-03-14T10:26:04;94381.41;;;25.74;61.51
61674;BME280;47573;43.832;5.974;2023-03-14T10:32:46;94389.59;;;25.79;61.31
61674;BME280;47573;43.832;5.974;2023-03-14T10:39:35;94393.72;;;25.77;61.54
61674;BME280;47573;43.832;5.974;2023-03-14T10:46:18;94388.22;;;25.82;61.19
61674;BME280;47573;43.832;5.974;2023-03-14T10:53:02;94386.59;;;25.81;61.63
61674;BME280;47573;43.832;5.974;2023-03-14T10:59:43;94380.56;;;25.84;61.17
61674;BME280;47573;43.832;5.974;2023-03-14T11:06:31;94375.91;;;25.84;61.36
61674;BME280;47573;43.832;5.974;2023-03-14T11:13:20;94375.66;;;25.81;61.45
61674;BME280;47573;43.832;5.974;2023-03-14T11:20:14;94379.44;;;25.85;61.40
61674;BME280;47573;43.832;5.974;2023-03-14T11:27:00;94365.78;;;25.85;61.10
61674;BME280;47573;43.832;5.974;2023-03-14T11:33:51;94358.63;;;25.89;60.84
61674;BME280;47573;43.832;5.974;2023-03-14T11:40:37;94365.72;;;25.95;60.59
61674;BME280;47573;43.832;5.974;2023-03-14T11:47:22;94367.34;;;25.96;60.76
61674;BME280;47573;43.832;5.974;2023-03-14T11:54:14;94373.31;;;26.03;60.15
61674;BME280;47573;43.832;5.974;2023-03-14T12:00:56;94374.94;;;26.09;59.91
61674;BME280;47573;43.832;5.974;2023-03-14T12:07:42;94384.22;;;26.13;59.72
61674;BME280;47573;43.832;5.974;2023-03-14T12:14:33;94375.41;;;26.16;59.33
61674;BME280;47573;43.832;5.974;2023-03-14T12:21:14;94361.22;;;26.14;58.95
61674;BME280;47573;43.832;5.974;2023-03-14T12:28:19;94347.28;;;26.15;59.13
61674;BME280;47573;43.832;5.974;2023-03-14T12:35:34;94360.13;;;26.15;59.30
61674;BME280;47573;43.832;5.974;2023-03-14T12:42:21;94346.97;;;26.17;58.90
61674;BME280;47573;43.832;5.974;2023-03-14T12:49:15;94363.41;;;26.17;59.03
61674;BME280;47573;43.832;5.974;2023-03-14T12:56:03;94339.28;;;26.19;59.50
61674;BME280;47573;43.832;5.974;2023-03-14T13:02:46;94332.69;;;26.20;59.09
61674;BME280;47573;43.832;5.974;2023-03-14T13:09:53;94331.63;;;26.21;59.22
61674;BME280;47573;43.832;5.974;2023-03-14T13:16:37;94322.28;;;26.22;58.81
61674;BME280;47573;43.832;5.974;2023-03-14T13:23:22;94317.34;;;26.24;59.36
61674;BME280;47573;43.832;5.974;2023-03-14T13:30:15;94327.75;;;26.22;59.41
61674;BME280;47573;43.832;5.974;2023-03-14T13:36:58;94332.44;;;26.21;59.03
61674;BME280;47573;43.832;5.974;2023-03-14T13:43:40;94345.81;;;26.23;58.79
61674;BME280;47573;43.832;5.974;2023-03-14T13:50:21;94333.22;;;26.22;58.68
61674;BME280;47573;43.832;5.974;2023-03-14T13:57:04;94337.66;;;26.18;59.12
61674;BME280;47573;43.832;5.974;2023-03-14T14:03:48;94327.75;;;26.22;58.96
61674;BME280;47573;43.832;5.974;2023-03-14T14:10:29;94316.81;;;26.22;59.27
61674;BME280;47573;43.832;5.974;2023-03-14T14:17:13;94323.94;;;26.23;58.69
61674;BME280;47573;43.832;5.974;2023-03-14T14:23:55;94324.69;;;26.28;59.50
61674;BME280;47573;43.832;5.974;2023-03-14T14:30:37;94312.16;;;26.22;59.77
61674;BME280;47573;43.832;5.974;2023-03-14T14:37:20;94328.59;;;26.22;59.80
61674;BME280;47573;43.832;5.974;2023-03-14T14:44:03;94327.22;;;26.20;59.96
61674;BME280;47573;43.832;5.974;2023-03-14T14:50:51;94327.75;;;26.22;59.18
61674;BME280;47573;43.832;5.974;2023-03-14T14:57:38;94338.16;;;26.25;57.17
61674;BME280;47573;43.832;5.974;2023-03-14T15:04:19;94333.97;;;26.33;59.29
61674;BME280;47573;43.832;5.974;2023-03-14T15:11:00;94348.19;;;26.35;59.02
61674;BME280;47573;43.832;5.974;2023-03-14T15:17:42;94345.19;;;26.36;59.82
61674;BME280;47573;43.832;5.974;2023-03-14T15:24:22;94339.09;;;26.39;59.77
61674;BME280;47573;43.832;5.974;2023-03-14T15:31:03;94332.88;;;26.34;59.85
61674;BME280;47573;43.832;5.974;2023-03-14T15:37:45;94330.03;;;26.44;59.39
61674;BME280;47573;43.832;5.974;2023-03-14T15:44:25;94345.38;;;26.45;60.19
61674;BME280;47573;43.832;5.974;2023-03-14T15:51:06;94341.81;;;26.44;59.75
61674;BME280;47573;43.832;5.974;2023-03-14T15:57:48;94331.69;;;26.45;59.66
61674;BME280;47573;43.832;5.974;2023-03-14T16:04:28;94335.28;;;26.40;59.89
61674;BME280;47573;43.832;5.974;2023-03-14T16:11:10;94327.59;;;26.42;59.70
61674;BME280;47573;43.832;5.974;2023-03-14T16:17:53;94348.66;;;26.42;59.97
61674;BME280;47573;43.832;5.974;2023-03-14T16:24:34;94344.59;;;26.39;60.12
61674;BME280;47573;43.832;5.974;2023-03-14T16:31:17;94342.09;;;26.43;60.26
61674;BME280;47573;43.832;5.974;2023-03-14T16:38:00;94344.03;;;26.42;60.53
61674;BME280;47573;43.832;5.974;2023-03-14T16:44:41;94342.38;;;26.41;60.56
61674;BME280;47573;43.832;5.974;2023-03-14T16:51:21;94337.72;;;26.42;60.46
61674;BME280;47573;43.832;5.974;2023-03-14T16:58:03;94335.31;;;26.35;60.28
61674;BME280;47573;43.832;5.974;2023-03-14T17:04:44;94343.53;;;26.35;60.97
61674;BME280;47573;43.832;5.974;2023-03-14T17:11:24;94353.66;;;26.35;60.61
61674;BME280;47573;43.832;5.974;2023-03-14T17:18:06;94355.06;;;26.32;60.86
61674;BME280;47573;43.832;5.974;2023-03-14T17:24:47;94349.59;;;26.32;61.00
61674;BME280;47573;43.832;5.974;2023-03-14T17:31:28;94363.53;;;26.30;60.99
61674;BME280;47573;43.832;5.974;2023-03-14T17:38:10;94385.44;;;26.30;61.62
61674;BME280;47573;43.832;5.974;2023-03-14T17:44:50;94401.59;;;26.32;61.60
61674;BME280;47573;43.832;5.974;2023-03-14T17:51:31;94427.53;;;26.35;60.01
61674;BME280;47573;43.832;5.974;2023-03-14T17:58:12;94443.13;;;26.39;61.19
61674;BME280;47573;43.832;5.974;2023-03-14T18:04:53;94460.38;;;26.35;61.71
61674;BME280;47573;43.832;5.974;2023-03-14T18:11:33;94475.47;;;26.32;61.62
61674;BME280;47573;43.832;5.974;2023-03-14T18:18:15;94494.56;;;26.42;61.32
61674;BME280;47573;43.832;5.974;2023-03-14T18:24:56;94503.53;;;26.53;61.25
61674;BME280;47573;43.832;5.974;2023-03-14T18:31:36;94524.59;;;26.52;59.79
61674;BME280;47573;43.832;5.974;2023-03-14T18:38:19;94530.59;;;26.59;60.83
61674;BME280;47573;43.832;5.974;2023-03-14T18:44:59;94547.56;;;26.56;60.15
61674;BME280;47573;43.832;5.974;2023-03-14T18:51:40;94552.50;;;26.59;59.19
61674;BME280;47573;43.832;5.974;2023-03-14T18:58:22;94571.16;;;26.47;58.68
61674;BME280;47573;43.832;5.974;2023-03-14T19:05:03;94582.09;;;26.52;60.66
61674;BME280;47573;43.832;5.974;2023-03-14T19:11:43;94595.53;;;26.49;60.71
61674;BME280;47573;43.832;5.974;2023-03-14T19:18:25;94604.56;;;26.49;61.35
61674;BME280;47573;43.832;5.974;2023-03-14T19:25:07;94613.59;;;26.50;61.51
61674;BME280;47573;43.832;5.974;2023-03-14T19:31:48;94615.91;;;26.27;58.36
61674;BME280;47573;43.832;5.974;2023-03-14T19:38:30;94610.63;;;26.41;60.34
61674;BME280;47573;43.832;5.974;2023-03-14T19:45:11;94602.69;;;26.40;60.83
61674;BME280;47573;43.832;5.974;2023-03-14T19:51:51;94605.16;;;26.41;61.20
61674;BME280;47573;43.832;5.974;2023-03-14T19:58:33;94617.75;;;26.42;61.66
61674;BME280;47573;43.832;5.974;2023-03-14T20:05:14;94627.03;;;26.41;61.75
61674;BME280;47573;43.832;5.974;2023-03-14T20:11:55;94612.81;;;26.39;61.92
61674;BME280;47573;43.832;5.974;2023-03-14T20:18:37;94611.88;;;26.00;49.65
61674;BME280;47573;43.832;5.974;2023-03-14T20:25:17;94623.91;;;26.09;54.75
61674;BME280;47573;43.832;5.974;2023-03-14T20:31:58;94635.97;;;25.93;55.41
61674;BME280;47573;43.832;5.974;2023-03-14T20:56:18;94632.69;;;25.81;58.74
61674;BME280;47573;43.832;5.974;2023-03-14T21:02:59;94643.38;;;25.77;58.38
61674;BME280;47573;43.832;5.974;2023-03-14T21:09:39;94630.53;;;25.73;58.98
61674;BME280;47573;43.832;5.974;2023-03-14T21:16:21;94641.50;;;25.68;58.67
61674;BME280;47573;43.832;5.974;2023-03-14T21:23:02;94643.69;;;25.61;59.14
61674;BME280;47573;43.832;5.974;2023-03-14T21:29:42;94640.13;;;25.60;59.05
61674;BME280;47573;43.832;5.974;2023-03-14T21:36:25;94642.59;;;25.57;59.14
61674;BME280;47573;43.832;5.974;2023-03-14T21:43:05;94649.16;;;25.50;59.15
61674;BME280;47573;43.832;5.974;2023-03-14T21:49:46;94656.56;;;25.45;59.32
61674;BME280;47573;43.832;5.974;2023-03-14T21:56:27;94668.03;;;25.42;59.42
61674;BME280;47573;43.832;5.974;2023-03-14T22:03:08;94666.66;;;25.34;59.44
61674;BME280;47573;43.832;5.974;2023-03-14T22:09:49;94653.78;;;25.30;59.29
61674;BME280;47573;43.832;5.974;2023-03-14T22:16:30;94658.97;;;25.26;59.06
61674;BME280;47573;43.832;5.974;2023-03-14T22:23:11;94654.88;;;25.24;59.55
61674;BME280;47573;43.832;5.974;2023-03-14T22:29:52;94656.25;;;25.21;59.70
61674;BME280;47573;43.832;5.974;2023-03-14T22:36:34;94660.06;;;25.15;59.28
61674;BME280;47573;43.832;5.974;2023-03-14T22:43:14;94655.13;;;25.12;59.34
61674;BME280;47573;43.832;5.974;2023-03-14T22:49:55;94637.09;;;25.06;59.59
61674;BME280;47573;43.832;5.974;2023-03-14T22:56:37;94627.28;;;25.00;59.17
61674;BME280;47573;43.832;5.974;2023-03-14T23:03:17;94638.19;;;25.00;59.45
61674;BME280;47573;43.832;5.974;2023-03-14T23:09:57;94633.31;;;24.97;59.30
61674;BME280;47573;43.832;5.974;2023-03-14T23:16:39;94634.66;;;24.95;59.39
61674;BME280;47573;43.832;5.974;2023-03-14T23:23:20;94652.41;;;24.92;59.41
61674;BME280;47573;43.832;5.974;2023-03-14T23:30:01;94644.75;;;24.84;59.40
61674;BME280;47573;43.832;5.974;2023-03-14T23:36:42;94658.69;;;24.83;59.79
61674;BME280;47573;43.832;5.974;2023-03-14T23:43:23;94649.09;;;24.80;59.41
61674;BME280;47573;43.832;5.974;2023-03-14T23:50:04;94645.53;;;24.74;59.39
61674;BME280;47573;43.832;5.974;2023-03-14T23:56:46;94649.06;;;24.70;59.38
